sensor_id;sensor_type;location;lat;lon;timestamp;pressure;altitude;pressure_sealevel;temperature;humidity
63351;BME280;64988;51.058;17.040;2023-02-02T00:04:22;99256.88;;;22.17;27.46
63351;BME280;64988;51.058;17.040;2023-02-02T00:09:50;99253.03;;;21.93;27.81
63351;BME280;64988;51.058;17.040;2023-02-02T00:15:17;99261.13;;;21.69;28.32
63351;BME280;64988;51.058;17.040;2023-02-02T00:20:45;99250.19;;;21.49;28.38
63351;BME280;64988;51.058;17.040;2023-02-02T00:26:16;99251.25;;;22.06;27.60
63351;BME280;64988;51.058;17.040;2023-02-02T00:31:44;99256.47;;;22.14;27.08
63351;BME280;64988;51.058;17.040;2023-02-02T00:37:13;99257.22;;;21.96;27.67
63351;BME280;64988;51.058;17.040;2023-02-02T00:42:40;99272.03;;;21.88;27.45
63351;BME280;64988;51.058;17.040;2023-02-02T00:48:09;99278.50;;;21.56;27.88
63351;BME280;64988;51.058;17.040;2023-02-02T00:53:39;99272.50;;;22.23;26.61
63351;BME280;64988;51.058;17.040;2023-02-02T00:59:06;99280.31;;;21.75;27.18
63351;BME280;64988;51.058;17.040;2023-02-02T01:04:33;99273.47;;;21.40;27.29
63351;BME280;64988;51.058;17.040;2023-02-02T01:10:00;99292.63;;;22.17;26.57
63351;BME280;64988;51.058;17.040;2023-02-02T01:15:28;99281.78;;;22.29;26.30
63351;BME280;64988;51.058;17.040;2023-02-02T01:21:01;99283.41;;;22.74;25.96
63351;BME280;64988;51.058;17.040;2023-02-02T01:26:29;99299.94;;;21.85;26.61
63351;BME280;64988;51.058;17.040;2023-02-02T01:31:56;99304.34;;;22.00;26.56
63351;BME280;64988;51.058;17.040;2023-02-02T01:37:23;99297.59;;;21.95;26.51
63351;BME280;64988;51.058;17.040;2023-02-02T01:42:50;99271.81;;;21.06;27.50
63351;BME280;64988;51.058;17.040;2023-02-02T01:48:19;99276.31;;;21.71;26.45
63351;BME280;64988;51.058;17.040;2023-02-02T01:53:50;99278.56;;;21.87;26.44
63351;BME280;64988;51.058;17.040;2023-02-02T01:59:19;99270.25;;;21.56;26.37
63351;BME280;64988;51.058;17.040;2023-02-02T02:04:49;99273.63;;;21.65;26.54
63351;BME280;64988;51.058;17.040;2023-02-02T02:10:17;99271.63;;;21.85;26.02
63351;BME280;64988;51.058;17.040;2023-02-02T02:16:10;99273.22;;;21.61;26.13
63351;BME280;64988;51.058;17.040;2023-02-02T02:21:58;99275.53;;;22.46;25.34
63351;BME280;64988;51.058;17.040;2023-02-02T02:28:14;99265.44;;;22.65;25.25
63351;BME280;64988;51.058;17.040;2023-02-02T02:40:19;99267.09;;;22.97;24.94
63351;BME280;64988;51.058;17.040;2023-02-02T02:45:37;99272.28;;;23.12;24.46
63351;BME280;64988;51.058;17.040;2023-02-02T02:51:07;99264.53;;;23.02;24.32
63351;BME280;64988;51.058;17.040;2023-02-02T03:13:22;99240.09;;;22.88;24.52
63351;BME280;64988;51.058;17.040;2023-02-02T03:18:50;99234.97;;;22.91;24.29
63351;BME280;64988;51.058;17.040;2023-02-02T03:24:18;99235.16;;;22.96;24.32
63351;BME280;64988;51.058;17.040;2023-02-02T03:29:46;99228.72;;;22.53;24.72
63351;BME280;64988;51.058;17.040;2023-02-02T03:35:13;99204.91;;;22.72;24.22
63351;BME280;64988;51.058;17.040;2023-02-02T03:40:41;99195.78;;;22.78;24.34
63351;BME280;64988;51.058;17.040;2023-02-02T03:46:08;99184.13;;;22.20;24.52
63351;BME280;64988;51.058;17.040;2023-02-02T03:51:36;99183.72;;;22.47;24.24
63351;BME280;64988;51.058;17.040;2023-02-02T03:57:03;99182.03;;;22.22;24.86
63351;BME280;64988;51.058;17.040;2023-02-02T04:02:30;99189.91;;;22.92;23.90
63351;BME280;64988;51.058;17.040;2023-02-02T04:07:57;99186.34;;;22.67;24.56
63351;BME280;64988;51.058;17.040;2023-02-02T04:13:24;99186.03;;;22.75;23.93
63351;BME280;64988;51.058;17.040;2023-02-02T04:18:52;99186.03;;;22.75;24.03
63351;BME280;64988;51.058;17.040;2023-02-02T04:24:19;99180.31;;;22.77;24.12
63351;BME280;64988;51.058;17.040;2023-02-02T04:29:47;99173.25;;;22.87;23.71
63351;BME280;64988;51.058;17.040;2023-02-02T04:35:13;99166.03;;;22.37;24.26
63351;BME280;64988;51.058;17.040;2023-02-02T04:40:42;99159.63;;;22.43;24.29
63351;BME280;64988;51.058;17.040;2023-02-02T04:46:10;99195.22;;;22.38;24.34
63351;BME280;64988;51.058;17.040;2023-02-02T04:51:38;99181.78;;;22.79;23.77
63351;BME280;64988;51.058;17.040;2023-02-02T04:57:06;99174.50;;;22.85;23.64
63351;BME280;64988;51.058;17.040;2023-02-02T05:02:39;99171.94;;;23.08;23.66
63351;BME280;64988;51.058;17.040;2023-02-02T05:08:07;99175.47;;;23.15;23.45
63351;BME280;64988;51.058;17.040;2023-02-02T05:13:37;99166.75;;;23.00;23.88
63351;BME280;64988;51.058;17.040;2023-02-02T05:19:05;99180.84;;;22.36;24.27
63351;BME280;64988;51.058;17.040;2023-02-02T05:24:33;99196.13;;;22.57;24.45
63351;BME280;64988;51.058;17.040;2023-02-02T05:30:00;99188.63;;;22.14;24.79
63351;BME280;64988;51.058;17.040;2023-02-02T05:35:28;99195.41;;;23.11;24.04
63351;BME280;64988;51.058;17.040;2023-02-02T05:40:55;99190.81;;;22.62;24.17
63351;BME280;64988;51.058;17.040;2023-02-02T05:46:23;99180.66;;;23.05;24.11
63351;BME280;64988;51.058;17.040;2023-02-02T05:51:55;99203.00;;;23.15;23.94
63351;BME280;64988;51.058;17.040;2023-02-02T05:57:24;99193.94;;;22.40;24.80
63351;BME280;64988;51.058;17.040;2023-02-02T06:02:52;99201.13;;;22.91;24.05
63351;BME280;64988;51.058;17.040;2023-02-02T06:08:20;99222.66;;;22.76;24.48
63351;BME280;64988;51.058;17.040;2023-02-02T06:13:47;99220.28;;;22.79;24.46
63351;BME280;64988;51.058;17.040;2023-02-02T06:19:14;99228.66;;;22.66;24.93
63351;BME280;64988;51.058;17.040;2023-02-02T06:24:42;99235.63;;;22.06;25.35
63351;BME280;64988;51.058;17.040;2023-02-02T06:30:10;99246.81;;;22.74;24.79
63351;BME280;64988;51.058;17.040;2023-02-02T06:35:38;99237.47;;;21.68;26.94
63351;BME280;64988;51.058;17.040;2023-02-02T06:41:06;99252.72;;;22.39;26.86
63351;BME280;64988;51.058;17.040;2023-02-02T06:46:33;99228.75;;;21.90;27.82
63351;BME280;64988;51.058;17.040;2023-02-02T06:52:00;99258.28;;;21.31;28.79
63351;BME280;64988;51.058;17.040;2023-02-02T06:57:28;99276.16;;;21.60;28.51
63351;BME280;64988;51.058;17.040;2023-02-02T07:02:56;99272.03;;;20.85;28.65
63351;BME280;64988;51.058;17.040;2023-02-02T07:08:24;99286.38;;;21.26;28.39
63351;BME280;64988;51.058;17.040;2023-02-02T07:13:52;99303.84;;;21.65;27.75
63351;BME280;64988;51.058;17.040;2023-02-02T07:19:21;99308.50;;;21.51;28.18
63351;BME280;64988;51.058;17.040;2023-02-02T07:24:48;99304.50;;;21.40;27.90
63351;BME280;64988;51.058;17.040;2023-02-02T07:30:15;99300.44;;;21.56;28.03
63351;BME280;64988;51.058;17.040;2023-02-02T07:35:43;99336.50;;;21.92;27.68
63351;BME280;64988;51.058;17.040;2023-02-02T07:41:11;99342.47;;;22.27;27.30
63351;BME280;64988;51.058;17.040;2023-02-02T07:46:38;99336.63;;;22.11;27.12
63351;BME280;64988;51.058;17.040;2023-02-02T07:52:06;99359.22;;;21.42;28.09
63351;BME280;64988;51.058;17.040;2023-02-02T07:57:33;99361.31;;;21.20;29.00
63351;BME280;64988;51.058;17.040;2023-02-02T08:03:00;99367.56;;;21.86;27.77
63351;BME280;64988;51.058;17.040;2023-02-02T08:08:28;99392.97;;;21.56;27.85
63351;BME280;64988;51.058;17.040;2023-02-02T08:13:57;99400.66;;;22.69;26.60
63351;BME280;64988;51.058;17.040;2023-02-02T08:19:25;99403.47;;;22.05;27.40
63351;BME280;64988;51.058;17.040;2023-02-02T08:24:53;99406.53;;;22.79;26.42
63351;BME280;64988;51.058;17.040;2023-02-02T08:30:20;99427.78;;;21.88;27.25
63351;BME280;64988;51.058;17.040;2023-02-02T08:35:48;99450.16;;;23.13;25.86
63351;BME280;64988;51.058;17.040;2023-02-02T08:41:18;99437.38;;;22.94;25.79
63351;BME280;64988;51.058;17.040;2023-02-02T08:46:46;99466.22;;;23.47;25.62
63351;BME280;64988;51.058;17.040;2023-02-02T08:52:13;99464.59;;;22.71;26.31
63351;BME280;64988;51.058;17.040;2023-02-02T08:57:41;99460.03;;;23.77;25.00
63351;BME280;64988;51.058;17.040;2023-02-02T09:03:08;99468.66;;;25.79;22.25
63351;BME280;64988;51.058;17.040;2023-02-02T09:08:35;99492.47;;;26.61;21.13
63351;BME280;64988;51.058;17.040;2023-02-02T09:14:04;99499.22;;;25.95;21.33
63351;BME280;64988;51.058;17.040;2023-02-02T09:19:33;99512.78;;;24.48;22.83
63351;BME280;64988;51.058;17.040;2023-02-02T09:25:01;99524.59;;;25.39;21.88
63351;BME280;64988;51.058;17.040;2023-02-02T09:30:30;99540.78;;;25.36;22.27
63351;BME280;64988;51.058;17.040;2023-02-02T09:36:09;99540.69;;;25.13;22.06
63351;BME280;64988;51.058;17.040;2023-02-02T09:52:55;99549.22;;;24.93;22.20
63351;BME280;64988;51.058;17.040;2023-02-02T09:58:26;99553.28;;;23.80;23.20
63351;BME280;64988;51.058;17.040;2023-02-02T10:09:42;99556.50;;;24.01;23.35
63351;BME280;64988;51.058;17.040;2023-02-02T10:21:25;99587.63;;;23.01;25.62
63351;BME280;64988;51.058;17.040;2023-02-02T10:26:57;99615.31;;;22.23;27.61
63351;BME280;64988;51.058;17.040;2023-02-02T10:38:37;99621.41;;;22.51;28.65
63351;BME280;64988;51.058;17.040;2023-02-02T10:44:44;99617.91;;;23.01;28.41
63351;BME280;64988;51.058;17.040;2023-02-02T10:55:48;99633.91;;;22.34;29.31
63351;BME280;64988;51.058;17.040;2023-02-02T11:01:18;99650.28;;;23.95;27.51
63351;BME280;64988;51.058;17.040;2023-02-02T11:06:48;99650.88;;;23.66;27.95
63351;BME280;64988;51.058;17.040;2023-02-02T11:17:48;99671.00;;;24.60;26.01
63351;BME280;64988;51.058;17.040;2023-02-02T11:23:17;99669.81;;;24.49;25.79
63351;BME280;64988;51.058;17.040;2023-02-02T11:28:47;99673.69;;;23.35;27.10
63351;BME280;64988;51.058;17.040;2023-02-02T11:34:19;99676.00;;;22.21;27.89
63351;BME280;64988;51.058;17.040;2023-02-02T11:39:48;99694.16;;;22.81;27.09
63351;BME280;64988;51.058;17.040;2023-02-02T11:45:17;99690.97;;;22.97;27.13
63351;BME280;64988;51.058;17.040;2023-02-02T11:50:56;99696.44;;;24.06;26.29
63351;BME280;64988;51.058;17.040;2023-02-02T11:56:25;99703.13;;;23.47;25.78
63351;BME280;64988;51.058;17.040;2023-02-02T12:07:43;99707.09;;;22.55;28.10
63351;BME280;64988;51.058;17.040;2023-02-02T12:13:36;99715.50;;;23.19;27.54
63351;BME280;64988;51.058;17.040;2023-02-02T12:19:44;99719.75;;;23.01;28.87
63351;BME280;64988;51.058;17.040;2023-02-02T12:36:59;99749.56;;;23.31;26.82
63351;BME280;64988;51.058;17.040;2023-02-02T12:42:40;99756.13;;;23.94;26.27
63351;BME280;64988;51.058;17.040;2023-02-02T12:48:53;99778.00;;;22.72;27.69
63351;BME280;64988;51.058;17.040;2023-02-02T12:54:44;99775.81;;;22.28;28.68
63351;BME280;64988;51.058;17.040;2023-02-02T13:00:27;99790.06;;;22.91;28.27
63351;BME280;64988;51.058;17.040;2023-02-02T13:12:06;99786.19;;;22.33;28.48
63351;BME280;64988;51.058;17.040;2023-02-02T13:17:55;99795.34;;;23.19;27.66
63351;BME280;64988;51.058;17.040;2023-02-02T13:23:45;99808.06;;;23.20;26.97
63351;BME280;64988;51.058;17.040;2023-02-02T13:29:21;99802.69;;;24.09;25.38
63351;BME280;64988;51.058;17.040;2023-02-02T13:34:57;99814.13;;;24.88;24.39
63351;BME280;64988;51.058;17.040;2023-02-02T13:40:27;99834.75;;;24.47;24.35
63351;BME280;64988;51.058;17.040;2023-02-02T14:09:05;99886.41;;;23.17;25.38
63351;BME280;64988;51.058;17.040;2023-02-02T14:14:36;99889.38;;;23.68;24.27
63351;BME280;64988;51.058;17.040;2023-02-02T14:26:09;99898.50;;;23.03;24.44
63351;BME280;64988;51.058;17.040;2023-02-02T14:31:43;99918.63;;;23.43;23.92
63351;BME280;64988;51.058;17.040;2023-02-02T14:49:10;99930.66;;;22.96;24.36
63351;BME280;64988;51.058;17.040;2023-02-02T14:54:41;99946.41;;;23.55;23.52
63351;BME280;64988;51.058;17.040;2023-02-02T15:00:24;99952.72;;;21.73;25.71
63351;BME280;64988;51.058;17.040;2023-02-02T15:06:01;99962.28;;;22.59;24.66
63351;BME280;64988;51.058;17.040;2023-02-02T15:17:39;100006.31;;;23.39;24.20
63351;BME280;64988;51.058;17.040;2023-02-02T15:23:30;100013.72;;;23.26;24.13
63351;BME280;64988;51.058;17.040;2023-02-02T15:29:04;100034.53;;;21.99;25.04
63351;BME280;64988;51.058;17.040;2023-02-02T15:34:42;100041.44;;;20.89;25.87
63351;BME280;64988;51.058;17.040;2023-02-02T15:40:30;100056.53;;;21.57;24.65
63351;BME280;64988;51.058;17.040;2023-02-02T15:46:04;100070.25;;;22.33;23.88
63351;BME280;64988;51.058;17.040;2023-02-02T15:51:33;100084.94;;;22.81;22.96
63351;BME280;64988;51.058;17.040;2023-02-02T15:57:01;100103.94;;;21.65;24.24
63351;BME280;64988;51.058;17.040;2023-02-02T16:02:38;100121.19;;;21.02;24.70
63351;BME280;64988;51.058;17.040;2023-02-02T16:08:17;100147.97;;;21.15;24.19
63351;BME280;64988;51.058;17.040;2023-02-02T16:14:05;100163.78;;;19.57;25.59
63351;BME280;64988;51.058;17.040;2023-02-02T16:19:40;100180.00;;;19.81;25.10
63351;BME280;64988;51.058;17.040;2023-02-02T16:25:20;100199.00;;;19.82;25.00
63351;BME280;64988;51.058;17.040;2023-02-02T16:30:50;100207.03;;;20.07;24.43
63351;BME280;64988;51.058;17.040;2023-02-02T16:36:20;100224.69;;;20.64;23.95
63351;BME280;64988;51.058;17.040;2023-02-02T16:41:53;100243.69;;;20.06;24.33
63351;BME280;64988;51.058;17.040;2023-02-02T16:53:04;100285.50;;;21.34;23.04
63351;BME280;64988;51.058;17.040;2023-02-02T16:58:38;100296.22;;;19.86;23.58
63351;BME280;64988;51.058;17.040;2023-02-02T17:09:47;100325.13;;;20.65;22.33
63351;BME280;64988;51.058;17.040;2023-02-02T17:20:45;100356.41;;;20.03;21.63
63351;BME280;64988;51.058;17.040;2023-02-02T17:26:21;100377.31;;;20.34;21.38
63351;BME280;64988;51.058;17.040;2023-02-02T17:31:48;100382.00;;;19.87;21.79
63351;BME280;64988;51.058;17.040;2023-02-02T17:37:19;100401.88;;;18.85;22.26
63351;BME280;64988;51.058;17.040;2023-02-02T17:42:50;100407.91;;;19.76;20.80
63351;BME280;64988;51.058;17.040;2023-02-02T17:48:18;100416.72;;;19.48;21.51
63351;BME280;64988;51.058;17.040;2023-02-02T17:53:47;100431.28;;;18.51;22.90
63351;BME280;64988;51.058;17.040;2023-02-02T17:59:16;100442.75;;;18.95;22.45
63351;BME280;64988;51.058;17.040;2023-02-02T18:04:46;100457.78;;;19.15;22.54
63351;BME280;64988;51.058;17.040;2023-02-02T18:10:15;100470.94;;;19.28;22.51
63351;BME280;64988;51.058;17.040;2023-02-02T18:15:47;100467.34;;;19.60;21.76
63351;BME280;64988;51.058;17.040;2023-02-02T18:21:16;100477.63;;;20.74;21.24
63351;BME280;64988;51.058;17.040;2023-02-02T18:26:44;100490.94;;;21.08;20.61
63351;BME280;64988;51.058;17.040;2023-02-02T18:32:12;100498.94;;;21.18;20.61
63351;BME280;64988;51.058;17.040;2023-02-02T18:37:40;100513.25;;;21.05;20.57
63351;BME280;64988;51.058;17.040;2023-02-02T18:43:08;100521.75;;;21.41;20.05
63351;BME280;64988;51.058;17.040;2023-02-02T18:48:35;100533.25;;;21.22;20.05
63351;BME280;64988;51.058;17.040;2023-02-02T18:54:03;100549.75;;;20.52;20.58
63351;BME280;64988;51.058;17.040;2023-02-02T18:59:31;100568.78;;;19.90;20.50
63351;BME280;64988;51.058;17.040;2023-02-02T19:04:59;100573.41;;;19.90;20.50
63351;BME280;64988;51.058;17.040;2023-02-02T19:10:45;100582.63;;;20.60;20.00
63351;BME280;64988;51.058;17.040;2023-02-02T19:16:25;100582.50;;;20.84;20.07
63351;BME280;64988;51.058;17.040;2023-02-02T19:21:55;100582.00;;;20.81;20.04
63351;BME280;64988;51.058;17.040;2023-02-02T19:27:25;100597.16;;;20.22;20.02
63351;BME280;64988;51.058;17.040;2023-02-02T19:32:53;100607.25;;;21.07;19.81
63351;BME280;64988;51.058;17.040;2023-02-02T19:38:22;100608.09;;;21.61;19.35
63351;BME280;64988;51.058;17.040;2023-02-02T19:43:55;100622.63;;;21.47;19.78
63351;BME280;64988;51.058;17.040;2023-02-02T19:49:33;100629.59;;;21.35;19.98
63351;BME280;64988;51.058;17.040;2023-02-02T19:55:33;100642.97;;;20.99;20.19
63351;BME280;64988;51.058;17.040;2023-02-02T20:01:16;100657.50;;;21.08;20.46
63351;BME280;64988;51.058;17.040;2023-02-02T20:06:46;100652.66;;;21.26;20.47
63351;BME280;64988;51.058;17.040;2023-02-02T20:12:30;100666.69;;;21.31;20.55
63351;BME280;64988;51.058;17.040;2023-02-02T20:18:05;100681.84;;;21.19;20.81
63351;BME280;64988;51.058;17.040;2023-02-02T20:23:42;100701.44;;;21.69;20.72
63351;BME280;64988;51.058;17.040;2023-02-02T20:29:56;100700.88;;;21.51;20.75
63351;BME280;64988;51.058;17.040;2023-02-02T20:35:23;100706.13;;;21.38;21.03
63351;BME280;64988;51.058;17.040;2023-02-02T20:40:54;100714.25;;;21.23;21.22
63351;BME280;64988;51.058;17.040;2023-02-02T20:46:21;100724.94;;;21.10;21.44
63351;BME280;64988;51.058;17.040;2023-02-02T20:51:48;100736.44;;;21.06;21.65
63351;BME280;64988;51.058;17.040;2023-02-02T20:57:17;100737.53;;;20.88;21.53
63351;BME280;64988;51.058;17.040;2023-02-02T21:02:48;100743.75;;;20.66;21.96
63351;BME280;64988;51.058;17.040;2023-02-02T21:08:18;100743.78;;;20.42;21.88
63351;BME280;64988;51.058;17.040;2023-02-02T21:13:47;100746.00;;;20.14;22.28
63351;BME280;64988;51.058;17.040;2023-02-02T21:19:17;100753.72;;;19.86;22.59
63351;BME280;64988;51.058;17.040;2023-02-02T21:24:46;100741.72;;;19.29;23.29
63351;BME280;64988;51.058;17.040;2023-02-02T21:30:15;100741.03;;;18.85;23.63
63351;BME280;64988;51.058;17.040;2023-02-02T21:35:42;100738.97;;;18.79;23.84
63351;BME280;64988;51.058;17.040;2023-02-02T21:41:13;100734.16;;;18.73;23.81
63351;BME280;64988;51.058;17.040;2023-02-02T21:46:41;100737.44;;;18.51;24.07
63351;BME280;64988;51.058;17.040;2023-02-02T21:52:15;100732.06;;;18.24;24.66
63351;BME280;64988;51.058;17.040;2023-02-02T21:57:43;100741.25;;;17.97;24.90
63351;BME280;64988;51.058;17.040;2023-02-02T22:03:33;100732.91;;;17.81;25.04
63351;BME280;64988;51.058;17.040;2023-02-02T22:14:39;100742.81;;;17.64;25.53
63351;BME280;64988;51.058;17.040;2023-02-02T22:20:17;100748.75;;;17.60;25.51
63351;BME280;64988;51.058;17.040;2023-02-02T22:25:53;100746.25;;;17.66;25.31
63351;BME280;64988;51.058;17.040;2023-02-02T22:31:21;100754.94;;;17.52;25.45
63351;BME280;64988;51.058;17.040;2023-02-02T22:36:49;100760.38;;;17.35;25.54
63351;BME280;64988;51.058;17.040;2023-02-02T22:42:17;100763.22;;;17.15;25.66
63351;BME280;64988;51.058;17.040;2023-02-02T22:47:44;100779.41;;;17.17;25.47
63351;BME280;64988;51.058;17.040;2023-02-02T22:53:14;100781.03;;;17.10;25.70
63351;BME280;64988;51.058;17.040;2023-02-02T22:58:41;100782.88;;;17.09;26.17
63351;BME280;64988;51.058;17.040;2023-02-02T23:04:08;100787.56;;;16.99;25.98
63351;BME280;64988;51.058;17.040;2023-02-02T23:09:35;100784.31;;;17.13;25.72
63351;BME280;64988;51.058;17.040;2023-02-02T23:15:03;100788.56;;;16.98;26.10
63351;BME280;64988;51.058;17.040;2023-02-02T23:20:30;100799.63;;;16.87;26.44
63351;BME280;64988;51.058;17.040;2023-02-02T23:25:57;100798.34;;;16.91;26.51
63351;BME280;64988;51.058;17.040;2023-02-02T23:31:24;100797.47;;;16.91;26.38
63351;BME280;64988;51.058;17.040;2023-02-02T23:36:51;100806.53;;;16.91;25.99
63351;BME280;64988;51.058;17.040;2023-02-02T23:42:19;100797.41;;;16.73;26.44
63351;BME280;64988;51.058;17.040;2023-02-02T23:47:47;100810.31;;;16.71;26.55
63351;BME280;64988;51.058;17.040;2023-02-02T23:53:15;100808.44;;;16.71;26.39
63351;BME280;64988;51.058;17.040;2023-02-02T23:58:42;100805.03;;;16.69;26.18
